createdAt,value
2023-03-26T00:04:46.403Z,3.50
2023-03-26T00:09:49.004Z,2.90
2023-03-26T00:14:52.727Z,3.30
2023-03-26T00:19:57.097Z,2.60
2023-03-26T00:25:01.440Z,3.10
2023-03-26T00:30:05.112Z,3.20
2023-03-26T00:35:08.081Z,2.30
2023-03-26T00:40:11.089Z,3.40
2023-03-26T00:45:13.773Z,3.00
2023-03-26T00:50:16.606Z,3.30
2023-03-26T00:55:19.258Z,3.70
2023-03-26T01:00:31.797Z,3.70
2023-03-26T01:05:34.383Z,3.40
2023-03-26T01:10:38.752Z,3.60
2023-03-26T01:15:41.871Z,3.60
2023-03-26T01:20:49.663Z,3.40
2023-03-26T01:26:09.807Z,3.70
2023-03-26T01:31:29.739Z,3.60
2023-03-26T01:36:42.587Z,3.50
2023-03-26T01:41:49.343Z,3.20
2023-03-26T01:46:52.599Z,3.90
2023-03-26T01:51:57.996Z,3.20
2023-03-26T01:57:36.390Z,3.00
2023-03-26T02:03:19.086Z,3.20
2023-03-26T02:08:35.333Z,3.00
2023-03-26T02:18:46.317Z,2.30
2023-03-26T02:23:57.580Z,2.90
2023-03-26T02:29:01.592Z,4.00
2023-03-26T02:34:04.324Z,3.30
2023-03-26T02:39:06.938Z,4.00
2023-03-26T02:44:09.632Z,4.20
2023-03-26T02:49:12.368Z,4.10
2023-03-26T02:54:16.723Z,4.40
2023-03-26T02:59:19.421Z,5.00
2023-03-26T03:04:22.049Z,4.80
2023-03-26T03:09:27.577Z,4.80
2023-03-26T03:14:31.600Z,5.10
2023-03-26T03:19:34.313Z,4.50
2023-03-26T03:24:36.944Z,4.80
2023-03-26T03:29:39.604Z,5.00
2023-03-26T03:34:42.426Z,5.10
2023-03-26T03:39:45.840Z,5.00
2023-03-26T03:44:48.512Z,5.00
2023-03-26T03:49:51.821Z,5.10
2023-03-26T03:54:57.606Z,5.60
2023-03-26T04:00:00.271Z,5.80
2023-03-26T04:05:04.419Z,6.30
2023-03-26T04:10:09.646Z,6.10
2023-03-26T04:15:12.317Z,5.70
2023-03-26T04:20:15.641Z,6.20
2023-03-26T04:25:19.036Z,5.70
2023-03-26T04:30:21.771Z,4.70
2023-03-26T04:35:24.408Z,4.50
2023-03-26T04:40:30.579Z,4.50
2023-03-26T04:45:33.289Z,3.40
2023-03-26T04:50:36.024Z,4.70
2023-03-26T04:55:45.274Z,4.70
2023-03-26T05:00:49.614Z,4.80
2023-03-26T05:05:52.615Z,4.60
2023-03-26T05:10:56.673Z,4.70
2023-03-26T05:15:59.576Z,4.60
2023-03-26T05:21:02.622Z,4.70
2023-03-26T05:26:07.643Z,4.10
2023-03-26T05:31:10.771Z,3.90
2023-03-26T05:36:15.339Z,4.00
2023-03-26T05:41:18.447Z,3.80
2023-03-26T05:46:22.935Z,4.00
2023-03-26T05:51:25.914Z,3.30
2023-03-26T05:56:28.709Z,3.80
2023-03-26T06:01:31.323Z,3.60
2023-03-26T06:06:33.932Z,3.30
2023-03-26T06:11:36.783Z,3.70
2023-03-26T06:16:39.484Z,2.40
2023-03-26T06:21:42.154Z,2.80
2023-03-26T06:26:45.054Z,3.00
2023-03-26T06:31:47.828Z,2.20
2023-03-26T06:36:52.672Z,2.70
2023-03-26T06:41:55.468Z,2.60
2023-03-26T06:46:58.194Z,2.90
2023-03-26T06:52:02.928Z,2.30
2023-03-26T06:57:05.632Z,2.40
2023-03-26T07:02:11.415Z,2.90
2023-03-26T07:07:14.402Z,4.00
2023-03-26T07:12:17.471Z,3.90
2023-03-26T07:17:20.229Z,9.80
2023-03-26T07:22:24.789Z,7.60
2023-03-26T07:27:46.059Z,3.60
2023-03-26T07:32:54.557Z,5.40
2023-03-26T07:38:13.490Z,2.80
2023-03-26T07:43:38.158Z,8.30
2023-03-26T07:48:43.873Z,9.70
2023-03-26T07:53:47.102Z,5.20
2023-03-26T07:59:11.397Z,3.60
2023-03-26T08:04:27.872Z,5.40
2023-03-26T08:09:35.068Z,4.10
2023-03-26T08:14:37.836Z,8.60
2023-03-26T08:19:59.334Z,6.90
2023-03-26T08:25:18.835Z,4.60
2023-03-26T08:30:26.832Z,3.80
2023-03-26T08:35:30.071Z,4.40
2023-03-26T08:41:00.646Z,4.40
2023-03-26T08:46:27.895Z,3.90
2023-03-26T08:51:55.230Z,4.40
2023-03-26T08:57:13.309Z,3.40
2023-03-26T09:02:26.010Z,3.20
2023-03-26T09:07:47.413Z,2.70
2023-03-26T09:12:58.786Z,2.80
2023-03-26T09:18:32.390Z,2.30
2023-03-26T09:23:40.675Z,2.60
2023-03-26T09:28:56.578Z,2.40
2023-03-26T09:34:19.412Z,1.70
2023-03-26T09:39:42.917Z,2.60
2023-03-26T09:45:10.610Z,2.20
2023-03-26T09:50:44.009Z,3.20
2023-03-26T09:55:59.537Z,2.50
2023-03-26T10:01:18.217Z,1.90
2023-03-26T10:06:59.105Z,3.00
2023-03-26T10:12:20.692Z,3.50
2023-03-26T10:17:44.865Z,3.00
2023-03-26T10:23:11.938Z,1.30
2023-03-26T10:28:46.216Z,1.70
2023-03-26T10:34:28.071Z,2.30
2023-03-26T10:39:44.000Z,10.60
2023-03-26T10:45:13.369Z,5.50
2023-03-26T10:50:40.554Z,3.10
2023-03-26T10:55:50.772Z,2.00
2023-03-26T11:01:10.444Z,1.90
2023-03-26T11:06:16.125Z,1.20
2023-03-26T11:11:42.173Z,1.90
2023-03-26T11:17:40.566Z,1.60
2023-03-26T11:22:41.850Z,1.30
2023-03-26T11:28:13.912Z,1.10
2023-03-26T11:33:57.119Z,1.00
2023-03-26T11:39:04.425Z,1.20
2023-03-26T11:44:17.362Z,1.50
2023-03-26T11:49:22.842Z,1.20
2023-03-26T11:54:25.526Z,1.60
2023-03-26T11:59:55.494Z,1.40
2023-03-26T12:05:18.118Z,1.90
2023-03-26T12:10:33.237Z,2.50
2023-03-26T12:15:43.661Z,1.50
2023-03-26T12:20:46.359Z,2.30
2023-03-26T12:26:05.638Z,1.60
2023-03-26T12:31:18.032Z,1.10
2023-03-26T12:36:26.470Z,1.40
2023-03-26T12:44:43.805Z,1.50
2023-03-26T12:48:01.069Z,1.90
2023-03-26T12:53:02.873Z,4.00
2023-03-26T12:58:39.530Z,3.60
2023-03-26T13:03:58.771Z,3.20
2023-03-26T13:09:20.008Z,3.10
2023-03-26T13:14:35.396Z,1.40
2023-03-26T13:20:06.696Z,4.10
2023-03-26T13:25:18.847Z,1.00
2023-03-26T13:30:47.928Z,1.20
2023-03-26T13:36:23.359Z,0.90
2023-03-26T13:41:36.182Z,1.00
2023-03-26T13:46:43.057Z,1.10
2023-03-26T13:51:53.691Z,1.30
2023-03-26T13:57:15.016Z,1.20
2023-03-26T14:02:39.008Z,1.10
2023-03-26T14:07:48.589Z,1.10
2023-03-26T14:12:57.084Z,2.20
2023-03-26T14:18:06.124Z,1.60
2023-03-26T14:23:40.475Z,1.30
2023-03-26T14:29:21.783Z,1.90
2023-03-26T14:34:51.751Z,2.30
2023-03-26T14:40:17.645Z,8.80
2023-03-26T14:45:35.516Z,2.80
2023-03-26T14:50:48.116Z,0.80
2023-03-26T14:56:09.290Z,1.30
2023-03-26T15:01:21.646Z,2.30
2023-03-26T15:06:59.474Z,1.40
2023-03-26T15:12:18.158Z,0.90
2023-03-26T15:17:34.821Z,1.40
2023-03-26T15:22:40.548Z,1.10
2023-03-26T15:28:20.683Z,1.00
2023-03-26T15:33:35.320Z,1.70
2023-03-26T15:39:18.340Z,1.60
2023-03-26T15:44:38.297Z,1.40
2023-03-26T15:49:59.140Z,1.60
2023-03-26T15:55:31.296Z,1.70
2023-03-26T16:00:50.082Z,1.40
2023-03-26T16:06:27.871Z,1.30
2023-03-26T16:11:52.752Z,1.70
2023-03-26T16:17:00.271Z,1.40
2023-03-26T16:22:10.139Z,1.30
2023-03-26T16:27:14.115Z,1.90
2023-03-26T16:32:32.935Z,2.60
2023-03-26T16:37:37.881Z,4.30
2023-03-26T16:43:05.520Z,2.70
2023-03-26T16:48:22.727Z,3.00
2023-03-26T16:54:00.823Z,5.80
2023-03-26T16:59:09.256Z,4.20
2023-03-26T17:04:23.645Z,3.50
2023-03-26T17:09:51.968Z,5.10
2023-03-26T17:15:25.417Z,5.30
2023-03-26T17:20:38.612Z,7.40
2023-03-26T17:26:19.322Z,8.00
2023-03-26T17:31:27.732Z,8.80
2023-03-26T17:42:01.273Z,8.10
2023-03-26T17:47:13.463Z,4.30
2023-03-26T17:52:36.924Z,4.00
2023-03-26T17:57:44.647Z,3.80
2023-03-26T18:03:20.244Z,4.80
2023-03-26T18:08:46.494Z,5.50
2023-03-26T18:14:13.469Z,5.40
2023-03-26T18:19:21.977Z,6.00
2023-03-26T18:24:29.740Z,5.10
2023-03-26T18:29:36.565Z,5.70
2023-03-26T18:34:50.077Z,6.40
2023-03-26T18:40:12.094Z,5.30
2023-03-26T18:45:36.372Z,4.50
2023-03-26T18:50:43.021Z,5.20
2023-03-26T18:55:51.594Z,4.50
2023-03-26T19:01:00.608Z,3.70
2023-03-26T19:06:12.752Z,4.70
2023-03-26T19:11:18.536Z,4.10
2023-03-26T19:16:30.110Z,3.60
2023-03-26T19:21:36.831Z,4.00
2023-03-26T19:26:41.053Z,2.60
2023-03-26T19:31:54.481Z,2.70
2023-03-26T19:37:03.887Z,2.40
2023-03-26T19:42:18.638Z,2.20
2023-03-26T19:47:39.136Z,2.20
2023-03-26T19:53:17.943Z,2.50
2023-03-26T19:58:21.533Z,2.50
2023-03-26T20:03:31.956Z,2.70
2023-03-26T20:08:36.773Z,2.70
2023-03-26T20:13:41.338Z,2.60
2023-03-26T20:18:44.458Z,2.70
2023-03-26T20:23:48.507Z,2.40
2023-03-26T20:28:53.466Z,2.70
2023-03-26T20:33:57.527Z,2.40
2023-03-26T20:39:00.811Z,2.20
2023-03-26T20:44:04.962Z,2.50
2023-03-26T20:49:07.863Z,2.30
2023-03-26T20:54:19.233Z,2.30
2023-03-26T20:59:26.172Z,2.50
2023-03-26T21:04:29.287Z,2.30
2023-03-26T21:09:34.106Z,1.70
2023-03-26T21:14:44.092Z,1.70
2023-03-26T21:19:47.631Z,2.00
2023-03-26T21:24:57.212Z,2.40
2023-03-26T21:30:00.169Z,2.70
2023-03-26T21:35:05.172Z,3.40
2023-03-26T21:40:15.485Z,4.00
2023-03-26T21:45:19.365Z,3.00
2023-03-26T21:50:23.531Z,3.00
2023-03-26T21:55:26.646Z,3.20
2023-03-26T22:00:43.830Z,3.80
2023-03-26T22:06:11.405Z,4.00
2023-03-26T22:11:14.031Z,6.30
2023-03-26T22:16:16.858Z,4.70
2023-03-26T22:21:20.333Z,4.70
2023-03-26T22:26:24.285Z,3.70
2023-03-26T22:31:27.126Z,3.20
2023-03-26T22:36:29.771Z,2.40
2023-03-26T22:41:32.459Z,2.70
2023-03-26T22:46:35.164Z,3.90
2023-03-26T22:51:37.831Z,3.60
2023-03-26T22:56:40.677Z,3.80
2023-03-26T23:01:44.366Z,3.70
2023-03-26T23:06:47.097Z,4.00
2023-03-26T23:11:49.752Z,4.50
2023-03-26T23:16:52.358Z,4.90
2023-03-26T23:21:54.975Z,5.20
2023-03-26T23:26:58.773Z,4.60
2023-03-26T23:32:01.410Z,3.70
2023-03-26T23:37:04.669Z,3.90
2023-03-26T23:42:07.344Z,3.50
2023-03-26T23:47:10.196Z,2.70
2023-03-26T23:52:13.670Z,3.60
2023-03-26T23:57:18.404Z,3.20
